Time;durP1;ratioP1;P1;durP2;ratioP2;P2;SDS_P1;SDS_P2;PMS_P1;PMS_P2;Temp;Humidity;BMP_temperature;BMP_pressure;BME280_temperature;BME280_humidity;BME280_pressure;Samples;Min_cycle;Max_cycle;Signal;HPM_P1;HPM_P2
2023/06/11 00:01:08;;;;;;;13.65;7.57;;;;;;;16.03;100.00;100699.94;6246543;23;20004;-83
2023/06/11 00:03:35;;;;;;;13.88;7.93;;;;;;;16.02;100.00;100709.13;6194794;23;20011;-83
2023/06/11 00:06:01;;;;;;;16.02;7.70;;;;;;;15.89;100.00;100699.16;6169916;23;20011;-82
2023/06/11 00:08:27;;;;;;;16.08;7.72;;;;;;;15.95;100.00;100706.44;6219752;23;20329;-83
2023/06/11 00:10:52;;;;;;;15.68;7.25;;;;;;;15.92;100.00;100703.31;6220035;23;20000;-83
2023/06/11 00:13:18;;;;;;;11.30;7.05;;;;;;;15.88;100.00;100704.78;6220029;23;20376;-82
2023/06/11 00:15:43;;;;;;;13.60;7.30;;;;;;;15.80;100.00;100703.97;6246129;23;20008;-83
2023/06/11 00:18:10;;;;;;;11.80;6.50;;;;;;;15.68;100.00;100692.06;6246647;23;20000;-80
2023/06/11 00:20:41;;;;;;;11.85;7.18;;;;;;;15.69;100.00;100710.06;6219692;23;20364;-87
2023/06/11 00:23:07;;;;;;;13.02;7.28;;;;;;;15.76;100.00;100715.44;6221288;23;20004;-82
2023/06/11 00:25:33;;;;;;;19.25;8.60;;;;;;;15.82;100.00;100710.03;6219737;23;20007;-83
2023/06/11 00:27:58;;;;;;;18.63;9.65;;;;;;;15.85;100.00;100711.47;6246179;23;20062;-82
2023/06/11 00:30:24;;;;;;;12.27;7.53;;;;;;;15.82;100.00;100723.59;6219882;23;20000;-82
2023/06/11 00:32:50;;;;;;;22.35;10.10;;;;;;;15.82;100.00;100720.00;6246172;23;20035;-83
2023/06/11 00:35:16;;;;;;;31.50;15.15;;;;;;;15.67;100.00;100682.28;6246454;23;20058;-85
2023/06/11 00:37:44;;;;;;;18.40;8.45;;;;;;;15.87;100.00;100722.09;6219409;23;20004;-83
2023/06/11 00:40:10;;;;;;;14.02;7.80;;;;;;;15.87;100.00;100705.84;6219559;23;20015;-84
2023/06/11 00:42:36;;;;;;;16.95;7.60;;;;;;;15.83;100.00;100705.44;6194374;23;20000;-85
2023/06/11 00:45:05;;;;;;;11.30;7.28;;;;;;;15.92;100.00;100706.84;6246662;23;20012;-83
2023/06/11 00:47:32;;;;;;;14.02;7.25;;;;;;;15.91;100.00;100712.50;6195184;23;20027;-82
2023/06/11 00:49:59;;;;;;;11.90;7.05;;;;;;;15.78;100.00;100692.50;6219483;23;20075;-84
2023/06/11 00:52:25;;;;;;;11.80;7.38;;;;;;;15.96;100.00;100710.00;6219898;23;20004;-84
2023/06/11 00:54:52;;;;;;;11.75;7.05;;;;;;;16.00;100.00;100711.22;6194461;23;20008;-83
2023/06/11 00:57:22;;;;;;;14.93;7.72;;;;;;;16.03;100.00;100717.03;6169646;23;20429;-83
2023/06/11 00:59:50;;;;;;;12.63;6.82;;;;;;;16.00;100.00;100706.63;6195386;23;20502;-83
2023/06/11 01:02:25;;;;;;;9.82;6.80;;;;;;;15.69;100.00;100677.53;6194383;23;20066;-83
2023/06/11 01:04:53;;;;;;;11.38;6.38;;;;;;;15.65;100.00;100697.09;6194607;23;20008;-82
2023/06/11 01:07:19;;;;;;;11.05;6.25;;;;;;;15.37;100.00;100709.84;6170527;23;20008;-83
2023/06/11 01:09:45;;;;;;;10.75;6.65;;;;;;;15.17;100.00;100711.69;6219476;23;20447;-80
2023/06/11 01:12:12;;;;;;;8.93;5.43;;;;;;;15.07;100.00;100705.84;6194334;23;20001;-84
2023/06/11 01:14:39;;;;;;;12.32;6.88;;;;;;;15.12;100.00;100714.19;6219300;23;20046;-84
2023/06/11 01:17:15;;;;;;;11.52;6.25;;;;;;;15.10;100.00;100703.53;6169689;23;20083;-83
2023/06/11 01:19:56;;;;;;;10.32;5.90;;;;;;;15.09;100.00;100706.47;6220118;23;20328;-83
2023/06/11 01:22:51;;;;;;;9.60;6.05;;;;;;;14.95;100.00;100700.19;6194618;23;20083;-83
2023/06/11 01:25:32;;;;;;;12.35;6.00;;;;;;;14.81;100.00;100714.75;6246340;23;20000;-83
2023/06/11 01:28:05;;;;;;;10.20;6.30;;;;;;;14.76;100.00;100720.78;6169683;23;20070;-82
2023/06/11 01:30:35;;;;;;;10.48;5.68;;;;;;;14.40;100.00;100667.78;6245879;23;20083;-83
2023/06/11 01:33:01;;;;;;;8.50;5.63;;;;;;;14.64;100.00;100717.84;6170564;23;20008;-83
2023/06/11 01:35:27;;;;;;;11.90;6.25;;;;;;;14.69;100.00;100725.34;6171644;23;20063;-81
2023/06/11 01:37:56;;;;;;;11.90;6.35;;;;;;;14.77;100.00;100727.03;6248050;23;20438;-81
2023/06/11 01:40:28;;;;;;;14.07;6.22;;;;;;;14.83;100.00;100727.03;6248072;23;20008;-82
2023/06/11 01:42:55;;;;;;;15.30;6.70;;;;;;;14.92;100.00;100728.53;6222326;23;20004;-82
2023/06/11 01:45:22;;;;;;;10.90;6.53;;;;;;;15.01;100.00;100725.63;6221459;23;20109;-82
2023/06/11 01:47:51;;;;;;;19.02;7.65;;;;;;;15.06;100.00;100723.97;6196172;23;20070;-82
2023/06/11 01:50:17;;;;;;;8.90;5.82;;;;;;;15.18;100.00;100725.00;6221232;23;20039;-82
2023/06/11 01:52:43;;;;;;;8.68;5.65;;;;;;;15.27;100.00;100720.25;6221215;23;20004;-84
2023/06/11 01:55:09;;;;;;;10.00;5.88;;;;;;;15.35;100.00;100730.88;6195953;23;20083;-82
2023/06/11 01:57:35;;;;;;;11.20;6.38;;;;;;;15.41;100.00;100729.19;6247415;23;20024;-83
2023/06/11 02:00:05;;;;;;;9.05;5.32;;;;;;;15.41;100.00;100721.06;6221071;23;20050;-82
2023/06/11 02:02:31;;;;;;;11.98;5.80;;;;;;;15.47;100.00;100720.22;6196468;23;20008;-82
2023/06/11 02:04:58;;;;;;;9.85;6.45;;;;;;;15.58;100.00;100725.00;6221358;23;20077;-82
2023/06/11 02:07:23;;;;;;;10.50;6.10;;;;;;;15.60;100.00;100728.34;6221118;23;20043;-83
2023/06/11 02:09:49;;;;;;;12.80;6.70;;;;;;;15.58;100.00;100713.34;6220839;23;20391;-82
2023/06/11 02:12:15;;;;;;;9.52;6.40;;;;;;;15.62;100.00;100725.44;6194761;23;20384;-82
2023/06/11 02:14:40;;;;;;;11.30;6.45;;;;;;;15.64;100.00;100709.81;6220719;23;20004;-82
2023/06/11 02:17:06;;;;;;;11.77;6.63;;;;;;;15.64;100.00;100719.81;6247672;23;20026;-83
2023/06/11 02:19:32;;;;;;;10.88;6.78;;;;;;;15.68;100.00;100719.19;6220948;23;20325;-82
2023/06/11 02:21:57;;;;;;;12.45;7.00;;;;;;;15.68;100.00;100705.63;6171005;23;20335;-83
2023/06/11 02:24:23;;;;;;;11.52;7.03;;;;;;;15.77;100.00;100717.97;6247208;23;20031;-82
2023/06/11 02:26:48;;;;;;;12.40;6.50;;;;;;;15.76;100.00;100707.31;6247608;23;20015;-83
2023/06/11 02:29:14;;;;;;;12.52;6.90;;;;;;;15.80;100.00;100716.72;6247643;23;20008;-82
2023/06/11 02:31:39;;;;;;;10.80;6.50;;;;;;;15.80;100.00;100714.00;6247288;23;20083;-82
2023/06/11 02:34:05;;;;;;;9.90;6.70;;;;;;;15.84;100.00;100709.78;6247591;23;20413;-82
2023/06/11 02:36:30;;;;;;;11.00;6.30;;;;;;;15.81;100.00;100702.91;6220752;23;20004;-82
2023/06/11 02:38:56;;;;;;;11.40;6.78;;;;;;;15.72;100.00;100689.81;6220848;23;20000;-86
2023/06/11 02:41:22;;;;;;;10.93;6.38;;;;;;;15.60;100.00;100671.44;6247548;23;20000;-82
2023/06/11 02:43:47;;;;;;;10.40;6.25;;;;;;;15.78;100.00;100700.63;6220376;23;20000;-84
2023/06/11 02:46:13;;;;;;;8.50;6.13;;;;;;;15.76;100.00;100697.28;6246948;23;20008;-82
2023/06/11 02:48:38;;;;;;;7.60;5.60;;;;;;;15.78;100.00;100708.78;6247397;23;19996;-83
2023/06/11 02:51:04;;;;;;;7.90;5.18;;;;;;;15.65;100.00;100676.22;6195725;23;20425;-83
2023/06/11 02:53:30;;;;;;;8.95;5.60;;;;;;;15.74;100.00;100693.97;6220368;23;20015;-82
2023/06/11 02:55:55;;;;;;;8.68;5.50;;;;;;;15.74;100.00;100691.25;6220636;23;20429;-82
2023/06/11 02:58:21;;;;;;;10.10;6.05;;;;;;;15.75;100.00;100692.09;6220407;23;20000;-83
2023/06/11 03:00:46;;;;;;;8.68;5.63;;;;;;;15.66;100.00;100688.72;6247349;23;20028;-83
2023/06/11 03:03:12;;;;;;;8.00;5.50;;;;;;;15.69;100.00;100699.22;6220532;23;20062;-81
2023/06/11 03:05:38;;;;;;;7.30;5.28;;;;;;;15.72;100.00;100704.19;6247199;23;20079;-82
2023/06/11 03:08:04;;;;;;;7.57;4.85;;;;;;;15.71;100.00;100697.09;6246977;23;20019;-81
2023/06/11 03:10:29;;;;;;;8.40;4.57;;;;;;;15.75;100.00;100694.81;6220309;23;20007;-83
2023/06/11 03:12:55;;;;;;;8.05;4.35;;;;;;;15.79;100.00;100699.59;6195328;23;20000;-83
2023/06/11 03:15:21;;;;;;;8.05;4.90;;;;;;;15.76;100.00;100691.88;6220141;23;20337;-83
2023/06/11 03:17:46;;;;;;;8.70;5.70;;;;;;;15.55;100.00;100660.41;6246784;23;20004;-82
2023/06/11 03:20:12;;;;;;;10.30;5.00;;;;;;;15.77;100.00;100704.41;6220353;23;20004;-82
2023/06/11 03:22:38;;;;;;;6.55;4.18;;;;;;;15.72;100.00;100685.22;6247110;23;20000;-83
2023/06/11 03:25:04;;;;;;;8.95;4.65;;;;;;;15.77;100.00;100696.28;6195165;23;20008;-81
2023/06/11 03:27:30;;;;;;;7.63;4.55;;;;;;;15.70;100.00;100679.19;6220322;23;20008;-82
2023/06/11 03:29:55;;;;;;;6.53;4.63;;;;;;;15.93;100.00;100713.97;6220361;23;20050;-82
2023/06/11 03:32:21;;;;;;;7.05;4.78;;;;;;;15.85;100.00;100700.63;6246981;23;20403;-83
2023/06/11 03:34:46;;;;;;;8.98;4.63;;;;;;;15.86;100.00;100698.75;6220052;23;20004;-83
2023/06/11 03:37:12;;;;;;;7.00;4.13;;;;;;;15.92;100.00;100711.44;6219994;23;20030;-84
2023/06/11 03:39:37;;;;;;;7.05;4.70;;;;;;;15.92;100.00;100716.88;6220218;23;20080;-83
2023/06/11 03:42:03;;;;;;;6.18;3.92;;;;;;;15.90;100.00;100710.81;6195194;23;20001;-87
2023/06/11 03:44:29;;;;;;;7.53;4.50;;;;;;;15.87;100.00;100705.84;6220222;23;20007;-83
2023/06/11 03:46:55;;;;;;;9.43;5.20;;;;;;;15.90;100.00;100711.66;6195123;23;20020;-84
2023/06/11 03:49:20;;;;;;;7.40;3.80;;;;;;;15.76;100.00;100689.16;6246474;23;20322;-83
2023/06/11 03:51:46;;;;;;;7.05;4.70;;;;;;;15.87;100.00;100705.84;6220251;23;20030;-87
2023/06/11 03:54:11;;;;;;;6.20;4.20;;;;;;;15.91;100.00;100705.19;6246800;23;20003;-83
2023/06/11 03:56:37;;;;;;;6.05;4.18;;;;;;;15.89;100.00;100701.03;6246176;23;20004;-83
2023/06/11 03:59:03;;;;;;;7.90;4.20;;;;;;;15.87;100.00;100698.53;6220100;23;20008;-84
2023/06/11 04:01:29;;;;;;;6.45;3.92;;;;;;;15.89;100.00;100712.72;6236322;23;20516;-82
2023/06/11 04:03:55;;;;;;;4.03;2.78;;;;;;;15.90;100.00;100698.09;6246716;22;20007;-84
2023/06/11 04:06:20;;;;;;;7.07;4.35;;;;;;;15.84;100.00;100704.38;6246291;22;20008;-83
2023/06/11 04:08:46;;;;;;;6.63;4.43;;;;;;;15.81;100.00;100696.66;6245030;23;20050;-82
2023/06/11 04:11:12;;;;;;;8.45;4.20;;;;;;;15.85;100.00;100706.06;6246307;22;20007;-82
2023/06/11 04:13:37;;;;;;;4.75;3.53;;;;;;;15.87;100.00;100703.94;6244754;23;20033;-83
2023/06/11 04:16:03;;;;;;;4.75;2.70;;;;;;;15.82;100.00;100696.47;6245019;23;20024;-84
2023/06/11 04:18:28;;;;;;;4.47;3.05;;;;;;;15.66;100.00;100658.91;6245025;23;20440;-83
2023/06/11 04:20:54;;;;;;;5.25;3.03;;;;;;;15.85;100.00;100691.66;6246415;23;20001;-83
2023/06/11 04:23:20;;;;;;;6.70;3.88;;;;;;;15.82;100.00;100688.34;6219441;23;20020;-84
2023/06/11 04:25:48;;;;;;;7.75;4.13;;;;;;;15.88;100.00;100697.50;6245070;23;20004;-83
2023/06/11 04:28:15;;;;;;;8.52;4.38;;;;;;;15.90;100.00;100691.84;6246489;22;20011;-82
2023/06/11 04:30:41;;;;;;;6.35;4.20;;;;;;;15.92;100.00;100690.59;6219481;23;20004;-83
2023/06/11 04:33:07;;;;;;;6.45;4.38;;;;;;;15.97;100.00;100695.38;6246610;22;20000;-80
2023/06/11 04:35:34;;;;;;;5.45;3.20;;;;;;;15.89;100.00;100684.78;6246133;22;20057;-82
2023/06/11 04:38:03;;;;;;;6.07;4.03;;;;;;;15.98;100.00;100691.59;6246341;22;20003;-87
2023/06/11 04:40:28;;;;;;;7.72;4.10;;;;;;;16.01;100.00;100688.50;6219606;23;20001;-82
2023/06/11 04:42:54;;;;;;;6.18;3.67;;;;;;;16.09;100.00;100703.69;6244994;23;20003;-84
2023/06/11 04:45:20;;;;;;;5.22;3.72;;;;;;;16.01;100.00;100692.03;6245007;23;20000;-85
2023/06/11 04:47:46;;;;;;;5.90;3.90;;;;;;;16.12;100.00;100711.41;6244644;23;20391;-83
2023/06/11 04:50:12;;;;;;;6.00;3.85;;;;;;;16.13;100.00;100704.94;6245050;23;20011;-81
2023/06/11 04:52:38;;;;;;;8.25;4.43;;;;;;;16.11;100.00;100705.13;6244913;23;20431;-82
2023/06/11 04:55:05;;;;;;;7.03;4.63;;;;;;;15.97;100.00;100670.97;6244799;23;20028;-83
2023/06/11 04:57:34;;;;;;;6.13;4.82;;;;;;;16.24;100.00;100698.84;6219383;23;20095;-83
2023/06/11 05:00:01;;;;;;;8.40;5.55;;;;;;;16.21;100.00;100697.38;6219907;23;20004;-86
2023/06/11 05:02:27;;;;;;;8.57;4.47;;;;;;;16.31;100.00;100706.97;6219815;23;20091;-82
2023/06/11 05:04:57;;;;;;;7.35;4.38;;;;;;;16.38;100.00;100707.75;6219615;23;20047;-83
2023/06/11 05:07:23;;;;;;;8.02;4.30;;;;;;;16.41;100.00;100715.47;6219405;23;20066;-81
2023/06/11 05:09:48;;;;;;;7.43;4.60;;;;;;;16.45;100.00;100714.81;6247941;23;20385;-84
2023/06/11 05:12:14;;;;;;;7.47;4.82;;;;;;;16.45;100.00;100697.69;6221687;23;20498;-83
2023/06/11 05:14:40;;;;;;;10.07;5.35;;;;;;;16.58;100.00;100713.09;6248292;23;20082;-82
2023/06/11 05:17:05;;;;;;;5.75;4.70;;;;;;;16.58;100.00;100703.06;6247728;23;20027;-82
2023/06/11 05:19:31;;;;;;;6.60;4.05;;;;;;;16.65;100.00;100701.16;6248118;23;20026;-80
2023/06/11 05:21:56;;;;;;;7.28;4.95;;;;;;;16.72;100.00;100706.53;6171353;23;20004;-82
2023/06/11 05:24:28;;;;;;;8.20;4.90;;;;;;;16.81;100.00;100709.88;6248049;23;20465;-80
2023/06/11 05:26:55;;;;;;;6.28;4.65;;;;;;;16.91;100.00;100710.22;6221206;23;20012;-81
2023/06/11 05:29:22;;;;;;;8.07;4.90;;;;;;;16.91;100.00;100707.53;6196284;23;20008;-82
2023/06/11 05:31:48;;;;;;;9.25;5.20;;;;;;;16.88;100.00;100695.22;6221323;23;20413;-82
2023/06/11 05:34:13;;;;;;;8.40;4.75;;;;;;;17.00;100.00;100706.19;6221076;23;20008;-82
2023/06/11 05:36:39;;;;;;;6.93;4.18;;;;;;;17.01;100.00;100720.59;6220904;23;20005;-81
2023/06/11 05:39:04;;;;;;;7.25;4.28;;;;;;;17.01;100.00;100718.72;6248042;23;20004;-82
2023/06/11 05:41:30;;;;;;;6.22;3.80;;;;;;;17.01;100.00;100717.88;6248033;23;20034;-82
2023/06/11 05:43:56;;;;;;;7.90;4.10;;;;;;;17.02;100.00;100720.38;6248117;23;20008;-84
2023/06/11 05:46:24;;;;;;;11.18;4.75;;;;;;;17.12;100.00;100730.75;6221144;23;20321;-83
2023/06/11 05:48:49;;;;;;;8.10;4.15;;;;;;;17.09;100.00;100706.75;6263770;23;20010;-83
2023/06/11 05:51:15;;;;;;;6.75;4.10;;;;;;;17.32;100.00;100731.44;6261145;23;20007;-84
2023/06/11 05:53:40;;;;;;;5.85;4.15;;;;;;;17.46;100.00;100736.78;6247876;23;20008;-82
2023/06/11 05:56:06;;;;;;;6.95;4.10;;;;;;;17.60;100.00;100738.34;6247881;23;20008;-82
2023/06/11 05:58:33;;;;;;;8.13;4.18;;;;;;;17.71;100.00;100734.88;6247700;23;20004;-84
2023/06/11 06:01:03;;;;;;;5.70;3.83;;;;;;;17.88;100.00;100721.56;6231243;23;20448;-83
2023/06/11 06:03:33;;;;;;;7.80;3.85;;;;;;;18.09;100.00;100724.91;6246101;23;20006;-82
2023/06/11 06:06:00;;;;;;;5.53;3.90;;;;;;;18.38;100.00;100734.22;6220882;23;20015;-83
2023/06/11 06:08:26;;;;;;;6.03;3.75;;;;;;;18.49;100.00;100729.88;6245961;23;20035;-81
2023/06/11 06:10:53;;;;;;;5.00;3.78;;;;;;;18.58;100.00;100723.09;6245878;23;20023;-83
2023/06/11 06:13:19;;;;;;;7.28;3.70;;;;;;;18.78;100.00;100733.72;6220729;23;20006;-84
2023/06/11 06:15:44;;;;;;;7.25;3.45;;;;;;;18.71;100.00;100711.16;6220423;23;20047;-82
2023/06/11 06:18:10;;;;;;;7.53;3.70;;;;;;;18.76;100.00;100717.63;6246168;23;20057;-86
2023/06/11 06:20:36;;;;;;;6.60;4.20;;;;;;;18.91;100.00;100743.59;6195791;23;20460;-81
2023/06/11 06:23:01;;;;;;;6.75;3.72;;;;;;;18.98;100.00;100736.19;6221008;23;20012;-82
2023/06/11 06:25:27;;;;;;;5.30;3.30;;;;;;;19.06;100.00;100735.84;6247357;22;20429;-81
2023/06/11 06:27:53;;;;;;;6.70;3.92;;;;;;;19.18;100.00;100744.03;6247586;22;20011;-82
2023/06/11 06:30:18;;;;;;;4.15;2.85;;;;;;;19.12;100.00;100726.72;6247585;23;20090;-81
2023/06/11 06:32:44;;;;;;;3.70;2.72;;;;;;;19.30;100.00;100748.47;6245967;23;20010;-83
2023/06/11 06:35:11;;;;;;;4.53;3.20;;;;;;;19.35;100.00;100750.50;6246162;23;20083;-82
2023/06/11 06:37:36;;;;;;;5.72;2.92;;;;;;;19.45;100.00;100749.91;6247170;22;20000;-83
2023/06/11 06:40:03;;;;;;;4.25;2.72;;;;;;;19.51;100.00;100740.78;6245891;23;20027;-84
2023/06/11 06:42:28;;;;;;;5.28;3.33;;;;;;;19.58;100.00;100749.69;6220299;23;20008;-82
2023/06/11 06:44:54;;;;;;;4.22;2.72;;;;;;;19.67;100.00;100756.50;6246003;23;20000;-82
2023/06/11 06:47:20;;;;;;;4.30;2.50;;;;;;;19.71;100.00;100744.06;6247534;22;20030;-81
2023/06/11 06:49:45;;;;;;;5.20;3.20;;;;;;;19.71;100.00;100727.69;6246034;23;20008;-82
2023/06/11 06:52:11;;;;;;;3.85;2.72;;;;;;;19.92;100.00;100752.69;6245984;23;20050;-83
2023/06/11 06:54:38;;;;;;;3.47;2.55;;;;;;;19.84;100.00;100758.50;6247284;22;20026;-83
2023/06/11 06:57:07;;;;;;;3.85;2.90;;;;;;;19.72;100.00;100758.53;6220344;23;20004;-84
2023/06/11 06:59:32;;;;;;;4.80;3.45;;;;;;;19.59;100.00;100755.97;6246886;22;20001;-83
2023/06/11 07:01:58;;;;;;;3.70;2.95;;;;;;;19.39;100.00;100764.47;6245417;23;20008;-83
2023/06/11 07:04:24;;;;;;;5.32;3.17;;;;;;;19.01;100.00;100755.59;6245766;23;20004;-83
2023/06/11 07:06:50;;;;;;;4.22;3.00;;;;;;;18.89;100.00;100779.25;6247065;23;20138;-83
2023/06/11 07:09:16;;;;;;;4.82;3.05;;;;;;;18.59;100.00;100776.47;6246930;22;20383;-82
2023/06/11 07:11:43;;;;;;;4.22;2.50;;;;;;;18.42;100.00;100784.44;6245295;23;20016;-83
2023/06/11 07:14:09;;;;;;;4.25;2.53;;;;;;;18.12;100.00;100776.97;6245652;23;20078;-84
2023/06/11 07:16:34;;;;;;;4.40;3.08;;;;;;;17.94;100.00;100787.84;6247039;22;20036;-83
2023/06/11 07:19:02;;;;;;;5.03;2.97;;;;;;;17.82;100.00;100781.47;6247135;23;20003;-82
2023/06/11 07:21:28;;;;;;;4.80;3.40;;;;;;;17.97;100.00;100782.81;6220016;23;19996;-82
2023/06/11 07:23:53;;;;;;;4.68;2.83;;;;;;;18.13;100.00;100784.09;6220672;23;20376;-81
2023/06/11 07:26:19;;;;;;;5.13;3.40;;;;;;;18.33;100.00;100778.44;6247118;23;20001;-82
2023/06/11 07:28:45;;;;;;;5.28;3.10;;;;;;;18.60;100.00;100787.16;6247069;22;20075;-81
2023/06/11 07:31:10;;;;;;;4.38;2.97;;;;;;;18.72;100.00;100786.38;6244889;23;20004;-83
2023/06/11 07:33:36;;;;;;;4.40;2.75;;;;;;;18.89;100.00;100790.13;6245608;23;20000;-82
2023/06/11 07:36:02;;;;;;;5.38;3.03;;;;;;;19.03;100.00;100766.28;6247025;23;20004;-83
2023/06/11 07:38:29;;;;;;;4.35;2.60;;;;;;;19.33;100.00;100779.88;6219993;23;20000;-82
2023/06/11 07:40:55;;;;;;;5.53;3.42;;;;;;;20.33;100.00;100783.66;6247031;22;20028;-87
2023/06/11 07:43:21;;;;;;;4.18;3.00;;;;;;;21.16;100.00;100792.44;6245614;23;20190;-80
2023/06/11 07:45:47;;;;;;;5.28;2.85;;;;;;;21.55;96.99;100789.88;6245588;23;20489;-83
2023/06/11 07:48:13;;;;;;;3.30;2.60;;;;;;;22.03;93.61;100797.47;6246991;22;20034;-81
2023/06/11 07:50:39;;;;;;;3.85;2.85;;;;;;;22.65;88.20;100785.47;6246891;23;20012;-84
2023/06/11 07:53:04;;;;;;;5.60;3.72;;;;;;;22.96;85.59;100807.75;6245651;23;19997;-83
2023/06/11 07:55:30;;;;;;;5.32;2.80;;;;;;;23.01;82.18;100811.41;6245413;23;19996;-83
2023/06/11 07:57:56;;;;;;;4.00;2.92;;;;;;;22.81;83.79;100792.81;6246683;23;20011;-82
2023/06/11 08:00:22;;;;;;;3.10;2.20;;;;;;;22.77;80.76;100807.25;6245049;23;20096;-86
2023/06/11 08:02:48;;;;;;;6.55;3.35;;;;;;;22.85;81.79;100782.13;6244607;23;20328;-82
2023/06/11 08:05:17;;;;;;;5.60;3.30;;;;;;;23.03;81.76;100808.44;6245206;23;20075;-82
2023/06/11 08:07:47;;;;;;;4.05;2.92;;;;;;;22.95;80.75;100808.84;6245243;23;20004;-82
2023/06/11 08:10:13;;;;;;;5.13;3.42;;;;;;;22.96;80.67;100818.72;6194829;23;20008;-83
2023/06/11 08:12:38;;;;;;;4.07;2.65;;;;;;;23.11;79.50;100821.69;6244760;23;20004;-84
2023/06/11 08:15:04;;;;;;;4.78;2.22;;;;;;;22.95;80.07;100820.66;6245278;23;20421;-83
2023/06/11 08:17:30;;;;;;;4.20;2.80;;;;;;;22.82;80.89;100823.78;6246620;22;20001;-82
2023/06/11 08:19:56;;;;;;;3.47;2.65;;;;;;;22.82;80.34;100810.91;6245322;23;20075;-82
2023/06/11 08:22:21;;;;;;;2.80;2.20;;;;;;;23.12;78.29;100817.00;6245266;23;20004;-83
2023/06/11 08:24:47;;;;;;;5.57;2.97;;;;;;;23.64;76.85;100802.69;6245038;23;20007;-83
2023/06/11 08:27:13;;;;;;;3.55;2.47;;;;;;;23.69;76.82;100825.53;6246137;22;20012;-83
2023/06/11 08:29:38;;;;;;;3.42;2.10;;;;;;;23.67;76.40;100819.47;6219856;23;20007;-83
2023/06/11 08:32:04;;;;;;;3.10;2.10;;;;;;;23.66;75.30;100820.56;6244650;23;19996;-83
2023/06/11 08:34:30;;;;;;;4.25;2.83;;;;;;;23.41;75.08;100810.16;6244628;23;20425;-83
2023/06/11 08:36:57;;;;;;;3.50;2.40;;;;;;;23.69;73.50;100828.28;6246399;22;20036;-82
2023/06/11 08:39:22;;;;;;;2.30;1.67;;;;;;;24.25;70.93;100816.91;6245068;23;20027;-81
2023/06/11 08:41:48;;;;;;;2.45;1.70;;;;;;;25.12;67.24;100821.97;6244751;23;20480;-82
2023/06/11 08:44:14;;;;;;;3.95;2.05;;;;;;;26.40;61.18;100817.31;6244722;23;20004;-82
2023/06/11 08:46:43;;;;;;;2.72;1.85;;;;;;;25.59;61.55;100818.19;6219747;23;20452;-83
2023/06/11 08:49:21;;;;;;;2.63;2.03;;;;;;;26.06;61.92;100837.22;6194635;23;20004;-81
2023/06/11 08:51:48;;;;;;;2.10;1.55;;;;;;;26.37;58.93;100839.09;6219960;23;20012;-82
2023/06/11 08:54:15;;;;;;;4.28;1.70;;;;;;;25.82;59.92;100836.09;6219871;23;20008;-81
2023/06/11 08:56:41;;;;;;;3.33;1.75;;;;;;;26.17;59.67;100818.75;6219639;23;20032;-82
2023/06/11 08:59:07;;;;;;;6.57;1.98;;;;;;;25.66;59.61;100843.53;6244858;23;19996;-80
2023/06/11 09:01:32;;;;;;;3.45;1.90;;;;;;;25.09;61.08;100834.34;6246504;22;20000;-82
2023/06/11 09:03:59;;;;;;;2.03;1.38;;;;;;;25.61;60.12;100841.59;6219438;23;20007;-83
2023/06/11 09:06:25;;;;;;;2.95;1.65;;;;;;;27.10;56.41;100844.09;6169336;23;20043;-87
2023/06/11 09:09:02;;;;;;;2.00;1.60;;;;;;;29.17;48.35;100829.72;6245890;23;20004;-86
2023/06/11 09:11:36;;;;;;;2.22;1.40;;;;;;;28.13;48.63;100833.13;6195582;23;20015;-86
2023/06/11 09:14:03;;;;;;;2.60;1.80;;;;;;;28.30;50.74;100840.97;6169267;23;20027;-86
2023/06/11 09:16:37;;;;;;;2.88;1.30;;;;;;;28.83;46.34;100824.34;6169454;23;20039;-85
2023/06/11 09:19:03;;;;;;;2.88;1.70;;;;;;;28.09;48.36;100830.13;6194596;23;19997;-86
2023/06/11 09:21:29;;;;;;;1.58;1.20;;;;;;;29.01;46.71;100829.06;6219655;23;20086;-85
2023/06/11 09:23:54;;;;;;;1.58;1.17;;;;;;;28.78;46.79;100825.22;6246235;23;20010;-85
2023/06/11 09:26:20;;;;;;;1.80;1.50;;;;;;;28.03;48.90;100823.00;6194398;23;20298;-85
2023/06/11 09:28:47;;;;;;;2.78;1.20;;;;;;;28.24;48.13;100818.09;6194649;23;20397;-86
2023/06/11 09:31:12;;;;;;;3.38;1.45;;;;;;;28.91;47.21;100821.72;6219210;23;20017;-84
2023/06/11 09:33:38;;;;;;;1.40;1.00;;;;;;;28.11;46.97;100816.84;6219416;23;20030;-84
2023/06/11 09:36:04;;;;;;;1.60;1.30;;;;;;;29.08;45.76;100817.66;6169703;23;20007;-86
2023/06/11 09:38:34;;;;;;;1.98;1.60;;;;;;;28.89;45.85;100793.50;6219326;23;20480;-86
2023/06/11 09:41:00;;;;;;;1.67;1.30;;;;;;;29.12;46.22;100819.53;6219798;23;20007;-85
2023/06/11 09:43:25;;;;;;;1.83;1.10;;;;;;;30.71;43.73;100827.06;6169417;23;20329;-85
2023/06/11 09:45:53;;;;;;;2.63;1.10;;;;;;;30.28;43.15;100810.72;6219173;23;20054;-84
2023/06/11 09:48:23;;;;;;;1.52;1.20;;;;;;;29.19;45.10;100821.09;6219276;23;20087;-86
2023/06/11 09:50:50;;;;;;;1.52;1.42;;;;;;;30.29;44.52;100823.47;6144986;23;20000;-84
2023/06/11 09:53:18;;;;;;;1.20;0.98;;;;;;;30.94;41.71;100816.88;6169669;23;20012;-84
2023/06/11 09:55:46;;;;;;;2.05;1.27;;;;;;;29.01;45.07;100815.22;6221085;23;20000;-85
2023/06/11 09:58:12;;;;;;;1.38;1.13;;;;;;;27.45;48.41;100823.75;6221192;23;20054;-85
2023/06/11 10:00:38;;;;;;;1.63;1.33;;;;;;;28.91;47.11;100812.59;6247580;23;20004;-84
2023/06/11 10:03:04;;;;;;;1.20;1.10;;;;;;;28.55;45.79;100831.59;6196519;23;20006;-85
2023/06/11 10:05:33;;;;;;;1.20;1.00;;;;;;;28.77;45.99;100834.66;6220748;23;20000;-85
2023/06/11 10:08:06;;;;;;;2.05;1.42;;;;;;;28.05;47.96;100826.28;6171172;23;20007;-84
2023/06/11 10:10:36;;;;;;;1.60;1.15;;;;;;;27.23;48.94;100824.19;6170668;23;20095;-83
2023/06/11 10:13:02;;;;;;;1.75;1.20;;;;;;;28.56;47.04;100833.25;6170500;23;20035;-82
2023/06/11 10:15:31;;;;;;;1.65;1.30;;;;;;;29.26;46.21;100836.22;6170761;23;20008;-83
2023/06/11 10:17:57;;;;;;;1.85;1.10;;;;;;;29.35;44.56;100833.59;6170721;23;20008;-83
2023/06/11 10:20:29;;;;;;;1.77;1.40;;;;;;;28.71;45.20;100820.06;6170564;23;20004;-82
2023/06/11 10:23:05;;;;;;;2.03;1.40;;;;;;;27.29;49.07;100838.75;6170467;23;20008;-83
2023/06/11 10:25:39;;;;;;;1.45;1.25;;;;;;;27.75;47.97;100832.88;6170872;23;20087;-82
2023/06/11 10:28:05;;;;;;;1.80;1.15;;;;;;;26.38;51.43;100841.56;6170543;23;20424;-83
2023/06/11 10:30:31;;;;;;;2.50;1.85;;;;;;;25.39;54.13;100843.78;6171002;23;20012;-83
2023/06/11 10:32:58;;;;;;;1.58;1.40;;;;;;;25.35;55.77;100843.53;6220786;23;20004;-81
2023/06/11 10:35:28;;;;;;;1.70;1.40;;;;;;;25.29;55.92;100839.09;6195842;23;20003;-83
2023/06/11 10:38:05;;;;;;;1.38;1.20;;;;;;;25.75;55.66;100849.31;6221152;23;20009;-83
2023/06/11 10:40:36;;;;;;;2.15;1.70;;;;;;;26.20;55.30;100853.22;6221027;23;20030;-84
2023/06/11 10:43:05;;;;;;;2.45;1.80;;;;;;;28.19;50.86;100845.78;6220094;23;20008;-84
2023/06/11 10:45:36;;;;;;;2.05;1.38;;;;;;;27.84;49.28;100851.38;6172103;23;20456;-81
2023/06/11 10:48:02;;;;;;;1.98;1.30;;;;;;;28.19;48.40;100854.91;6220232;23;20012;-84
2023/06/11 10:50:35;;;;;;;2.10;1.70;;;;;;;27.84;50.80;100859.66;6170616;23;20510;-83
2023/06/11 10:53:08;;;;;;;2.55;1.60;;;;;;;29.79;47.55;100855.34;6196737;23;20008;-83
2023/06/11 10:55:35;;;;;;;1.90;1.67;;;;;;;30.49;45.77;100859.13;6170665;23;20016;-82
2023/06/11 10:58:02;;;;;;;1.83;1.40;;;;;;;29.95;45.03;100852.31;6195181;23;20476;-84
2023/06/11 11:00:32;;;;;;;2.95;1.60;;;;;;;29.14;45.80;100858.81;6173966;23;20012;-84
2023/06/11 11:02:59;;;;;;;1.95;1.58;;;;;;;27.95;48.24;100856.81;6245636;23;20004;-84
2023/06/11 11:05:28;;;;;;;1.90;1.60;;;;;;;27.57;49.40;100862.03;6219884;23;20012;-84
2023/06/11 11:07:55;;;;;;;2.08;1.75;;;;;;;27.24;50.36;100858.94;6219950;23;20010;-83
2023/06/11 11:10:25;;;;;;;1.98;1.63;;;;;;;27.11;51.02;100854.84;6220039;23;20425;-84
2023/06/11 11:12:51;;;;;;;2.30;1.58;;;;;;;26.61;51.80;100858.63;6170439;23;20104;-82
2023/06/11 11:15:17;;;;;;;2.13;1.48;;;;;;;26.73;51.53;100859.97;6194813;23;20111;-82